Terminal Aerodrome Forecast
Issued by NWS

Home | Current Version | Previous Version | Text Only | Print | Product List | Glossary On
Versions: 1 2 3 4 5 6 7 8 9 10 11 12 13 14 15 16 17 18 19 20 21 22 23 24 25 26 27 28 29 30 31
000
FTUS44 KFWD 210500
TAFAFW
TAF
KAFW 210520Z 2106/2206 17015KT P6SM SKC
     FM211400 19013KT P6SM BKN025
     FM211700 17015KT P6SM SCT050=

USA.gov is the U.S. government's official web portal to all federal, state and local government web resources and services.